sensor_id;sensor_type;location;lat;lon;timestamp;pressure;altitude;pressure_sealevel;temperature;humidity
69848;BME280;57143;55.940;37.496;2023-05-21T00:00:21;96772.00;;;10.60;100.00
69848;BME280;57143;55.940;37.496;2023-05-21T00:02:48;96761.00;;;10.51;100.00
69848;BME280;57143;55.940;37.496;2023-05-21T00:05:16;96736.13;;;10.49;100.00
69848;BME280;57143;55.940;37.496;2023-05-21T00:07:44;96729.56;;;10.55;100.00
69848;BME280;57143;55.940;37.496;2023-05-21T00:10:12;96719.13;;;10.43;100.00
69848;BME280;57143;55.940;37.496;2023-05-21T00:12:39;96685.03;;;10.42;100.00
69848;BME280;57143;55.940;37.496;2023-05-21T00:15:08;96655.41;;;10.51;100.00
69848;BME280;57143;55.940;37.496;2023-05-21T00:17:36;96597.72;;;10.32;100.00
69848;BME280;57143;55.940;37.496;2023-05-21T00:20:05;96605.13;;;10.45;100.00
69848;BME280;57143;55.940;37.496;2023-05-21T00:22:34;96574.16;;;10.51;100.00
69848;BME280;57143;55.940;37.496;2023-05-21T00:25:02;96673.97;;;10.39;100.00
69848;BME280;57143;55.940;37.496;2023-05-21T00:27:30;96616.25;;;10.43;100.00
69848;BME280;57143;55.940;37.496;2023-05-21T00:29:58;96546.00;;;10.52;100.00
69848;BME280;57143;55.940;37.496;2023-05-21T00:32:25;96482.91;;;10.52;100.00
69848;BME280;57143;55.940;37.496;2023-05-21T00:34:53;96396.78;;;10.54;100.00
69848;BME280;57143;55.940;37.496;2023-05-21T00:37:22;96340.31;;;10.47;100.00
69848;BME280;57143;55.940;37.496;2023-05-21T00:39:50;96257.16;;;10.47;100.00
69848;BME280;57143;55.940;37.496;2023-05-21T00:42:17;96174.44;;;10.55;100.00
69848;BME280;57143;55.940;37.496;2023-05-21T00:44:45;96075.84;;;10.56;100.00
69848;BME280;57143;55.940;37.496;2023-05-21T00:47:12;95990.31;;;10.55;100.00
69848;BME280;57143;55.940;37.496;2023-05-21T00:49:42;95885.03;;;10.54;100.00
69848;BME280;57143;55.940;37.496;2023-05-21T00:52:11;95784.41;;;10.60;100.00
69848;BME280;57143;55.940;37.496;2023-05-21T00:54:38;95695.84;;;10.52;100.00
69848;BME280;57143;55.940;37.496;2023-05-21T00:57:05;95603.78;;;10.52;100.00
69848;BME280;57143;55.940;37.496;2023-05-21T00:59:33;95486.41;;;10.57;100.00
69848;BME280;57143;55.940;37.496;2023-05-21T01:02:00;95396.28;;;10.47;100.00
69848;BME280;57143;55.940;37.496;2023-05-21T01:04:30;95269.06;;;10.47;100.00
69848;BME280;57143;55.940;37.496;2023-05-21T01:06:57;95165.47;;;10.38;100.00
69848;BME280;57143;55.940;37.496;2023-05-21T01:09:26;95018.34;;;10.43;100.00
69848;BME280;57143;55.940;37.496;2023-05-21T01:11:54;94833.03;;;10.28;100.00
69848;BME280;57143;55.940;37.496;2023-05-21T01:14:23;94694.59;;;10.51;100.00
69848;BME280;57143;55.940;37.496;2023-05-21T01:16:50;94553.53;;;10.52;100.00
69848;BME280;57143;55.940;37.496;2023-05-21T01:19:20;94423.28;;;10.54;100.00
69848;BME280;57143;55.940;37.496;2023-05-21T01:21:50;94319.63;;;10.53;100.00
69848;BME280;57143;55.940;37.496;2023-05-21T01:24:19;94208.22;;;10.51;100.00
69848;BME280;57143;55.940;37.496;2023-05-21T01:26:47;94140.47;;;10.63;100.00
69848;BME280;57143;55.940;37.496;2023-05-21T01:29:14;94103.19;;;10.57;100.00
69848;BME280;57143;55.940;37.496;2023-05-21T01:31:51;94038.31;;;10.60;100.00
69848;BME280;57143;55.940;37.496;2023-05-21T01:34:27;93986.84;;;10.57;100.00
69848;BME280;57143;55.940;37.496;2023-05-21T01:37:05;94022.44;;;10.59;100.00
69848;BME280;57143;55.940;37.496;2023-05-21T01:39:37;94013.06;;;10.53;100.00
69848;BME280;57143;55.940;37.496;2023-05-21T01:42:09;93934.84;;;10.47;100.00
69848;BME280;57143;55.940;37.496;2023-05-21T01:44:36;93903.00;;;10.60;100.00
69848;BME280;57143;55.940;37.496;2023-05-21T01:47:04;93828.38;;;10.59;100.00
69848;BME280;57143;55.940;37.496;2023-05-21T01:49:32;93754.81;;;10.54;100.00
69848;BME280;57143;55.940;37.496;2023-05-21T01:51:59;93730.53;;;10.57;100.00
69848;BME280;57143;55.940;37.496;2023-05-21T01:54:27;93666.44;;;10.61;100.00
69848;BME280;57143;55.940;37.496;2023-05-21T01:56:55;93618.00;;;10.56;100.00
69848;BME280;57143;55.940;37.496;2023-05-21T01:59:23;93595.28;;;10.61;100.00
69848;BME280;57143;55.940;37.496;2023-05-21T02:01:50;93628.81;;;10.53;100.00
69848;BME280;57143;55.940;37.496;2023-05-21T02:04:17;93624.88;;;10.50;100.00
69848;BME280;57143;55.940;37.496;2023-05-21T02:06:44;93613.28;;;10.49;100.00
69848;BME280;57143;55.940;37.496;2023-05-21T02:09:12;93581.97;;;10.48;100.00
69848;BME280;57143;55.940;37.496;2023-05-21T02:11:39;93541.84;;;10.54;100.00
69848;BME280;57143;55.940;37.496;2023-05-21T02:14:07;93496.97;;;10.53;100.00
69848;BME280;57143;55.940;37.496;2023-05-21T02:16:35;93464.13;;;10.55;100.00
69848;BME280;57143;55.940;37.496;2023-05-21T02:19:03;93432.06;;;10.57;100.00
69848;BME280;57143;55.940;37.496;2023-05-21T02:21:33;93387.59;;;10.54;100.00
69848;BME280;57143;55.940;37.496;2023-05-21T02:24:00;93376.41;;;10.56;100.00
69848;BME280;57143;55.940;37.496;2023-05-21T02:26:28;93385.63;;;10.51;100.00
69848;BME280;57143;55.940;37.496;2023-05-21T02:28:55;93352.44;;;10.54;100.00
69848;BME280;57143;55.940;37.496;2023-05-21T02:31:24;93340.78;;;10.50;100.00
69848;BME280;57143;55.940;37.496;2023-05-21T02:33:51;93314.13;;;10.52;100.00
69848;BME280;57143;55.940;37.496;2023-05-21T02:36:18;93316.47;;;10.54;100.00
69848;BME280;57143;55.940;37.496;2023-05-21T02:38:45;93344.69;;;10.53;100.00
69848;BME280;57143;55.940;37.496;2023-05-21T02:41:13;93327.69;;;10.56;100.00
69848;BME280;57143;55.940;37.496;2023-05-21T02:43:40;93380.66;;;10.57;100.00
69848;BME280;57143;55.940;37.496;2023-05-21T02:46:07;93415.78;;;10.53;100.00
69848;BME280;57143;55.940;37.496;2023-05-21T02:48:36;93637.09;;;10.67;100.00
69848;BME280;57143;55.940;37.496;2023-05-21T02:51:03;93681.97;;;10.68;100.00
69848;BME280;57143;55.940;37.496;2023-05-21T02:53:30;93717.16;;;10.68;100.00
69848;BME280;57143;55.940;37.496;2023-05-21T02:55:58;93780.25;;;10.72;100.00
69848;BME280;57143;55.940;37.496;2023-05-21T02:58:25;93853.31;;;10.72;100.00
69848;BME280;57143;55.940;37.496;2023-05-21T03:00:52;93915.72;;;10.79;100.00
69848;BME280;57143;55.940;37.496;2023-05-21T03:03:19;93987.75;;;10.83;100.00
69848;BME280;57143;55.940;37.496;2023-05-21T03:05:48;94039.97;;;10.84;100.00
69848;BME280;57143;55.940;37.496;2023-05-21T03:08:15;94120.63;;;10.75;100.00
69848;BME280;57143;55.940;37.496;2023-05-21T03:10:42;94184.88;;;10.78;100.00
69848;BME280;57143;55.940;37.496;2023-05-21T03:13:10;94239.03;;;10.78;100.00
69848;BME280;57143;55.940;37.496;2023-05-21T03:15:37;94261.22;;;10.83;100.00
69848;BME280;57143;55.940;37.496;2023-05-21T03:18:04;94320.44;;;10.85;100.00
69848;BME280;57143;55.940;37.496;2023-05-21T03:20:31;94365.31;;;10.86;100.00
69848;BME280;57143;55.940;37.496;2023-05-21T03:23:00;94404.13;;;10.90;100.00
69848;BME280;57143;55.940;37.496;2023-05-21T03:25:29;94437.31;;;10.87;100.00
69848;BME280;57143;55.940;37.496;2023-05-21T03:27:56;94454.25;;;10.84;100.00
69848;BME280;57143;55.940;37.496;2023-05-21T03:30:23;94523.38;;;10.93;100.00
69848;BME280;57143;55.940;37.496;2023-05-21T03:32:50;94551.00;;;10.99;100.00
69848;BME280;57143;55.940;37.496;2023-05-21T03:35:17;94577.50;;;11.05;100.00
69848;BME280;57143;55.940;37.496;2023-05-21T03:37:44;94625.81;;;11.03;100.00
69848;BME280;57143;55.940;37.496;2023-05-21T03:40:13;94690.16;;;10.94;100.00
69848;BME280;57143;55.940;37.496;2023-05-21T03:42:41;94745.00;;;10.91;100.00
69848;BME280;57143;55.940;37.496;2023-05-21T03:45:08;94761.47;;;10.98;100.00
69848;BME280;57143;55.940;37.496;2023-05-21T03:47:36;94796.47;;;11.03;100.00
69848;BME280;57143;55.940;37.496;2023-05-21T03:50:04;94814.44;;;11.08;100.00
69848;BME280;57143;55.940;37.496;2023-05-21T03:52:31;94842.06;;;11.13;100.00
69848;BME280;57143;55.940;37.496;2023-05-21T03:54:58;94878.66;;;11.07;100.00
69848;BME280;57143;55.940;37.496;2023-05-21T03:57:27;94902.25;;;11.19;100.00
69848;BME280;57143;55.940;37.496;2023-05-21T03:59:54;94932.97;;;11.23;100.00
69848;BME280;57143;55.940;37.496;2023-05-21T04:02:24;94945.59;;;11.19;100.00
69848;BME280;57143;55.940;37.496;2023-05-21T04:04:52;94992.03;;;11.29;100.00
69848;BME280;57143;55.940;37.496;2023-05-21T04:07:20;95024.19;;;11.31;100.00
69848;BME280;57143;55.940;37.496;2023-05-21T04:09:47;95055.28;;;11.33;100.00
69848;BME280;57143;55.940;37.496;2023-05-21T04:12:14;95093.69;;;11.35;100.00
69848;BME280;57143;55.940;37.496;2023-05-21T04:14:44;95124.16;;;11.32;100.00
69848;BME280;57143;55.940;37.496;2023-05-21T04:17:11;95145.28;;;11.39;100.00
69848;BME280;57143;55.940;37.496;2023-05-21T04:19:38;95169.41;;;11.52;100.00
69848;BME280;57143;55.940;37.496;2023-05-21T04:22:06;95220.06;;;11.40;100.00
69848;BME280;57143;55.940;37.496;2023-05-21T04:24:33;95277.13;;;11.43;100.00
69848;BME280;57143;55.940;37.496;2023-05-21T04:27:03;95312.25;;;11.40;100.00
69848;BME280;57143;55.940;37.496;2023-05-21T04:29:30;95371.41;;;11.38;100.00
69848;BME280;57143;55.940;37.496;2023-05-21T04:31:58;95413.22;;;11.37;100.00
69848;BME280;57143;55.940;37.496;2023-05-21T04:34:25;95454.66;;;11.37;100.00
69848;BME280;57143;55.940;37.496;2023-05-21T04:36:54;95479.66;;;11.43;100.00
69848;BME280;57143;55.940;37.496;2023-05-21T04:39:21;95505.47;;;11.57;100.00
69848;BME280;57143;55.940;37.496;2023-05-21T04:41:48;95538.13;;;11.70;100.00
69848;BME280;57143;55.940;37.496;2023-05-21T04:44:19;95557.38;;;11.85;100.00
69848;BME280;57143;55.940;37.496;2023-05-21T04:46:46;95456.22;;;12.79;100.00
69848;BME280;57143;55.940;37.496;2023-05-21T04:49:16;95518.66;;;12.67;100.00
69848;BME280;57143;55.940;37.496;2023-05-21T04:51:45;95617.28;;;12.67;100.00
69848;BME280;57143;55.940;37.496;2023-05-21T04:54:14;95635.47;;;12.67;100.00
69848;BME280;57143;55.940;37.496;2023-05-21T04:56:41;95772.44;;;12.66;100.00
69848;BME280;57143;55.940;37.496;2023-05-21T04:59:09;95868.22;;;12.54;100.00
69848;BME280;57143;55.940;37.496;2023-05-21T05:01:36;95975.25;;;12.45;100.00
69848;BME280;57143;55.940;37.496;2023-05-21T05:04:04;96091.63;;;12.04;100.00
69848;BME280;57143;55.940;37.496;2023-05-21T05:06:33;96200.94;;;11.96;100.00
69848;BME280;57143;55.940;37.496;2023-05-21T05:09:00;96289.56;;;11.78;100.00
69848;BME280;57143;55.940;37.496;2023-05-21T05:11:27;96347.97;;;11.76;100.00
69848;BME280;57143;55.940;37.496;2023-05-21T05:13:54;96404.94;;;11.76;100.00
69848;BME280;57143;55.940;37.496;2023-05-21T05:16:21;96452.75;;;11.85;100.00
69848;BME280;57143;55.940;37.496;2023-05-21T05:18:50;96470.31;;;12.01;100.00
69848;BME280;57143;55.940;37.496;2023-05-21T05:21:18;96510.00;;;12.11;100.00
69848;BME280;57143;55.940;37.496;2023-05-21T05:23:46;96508.25;;;12.28;100.00
69848;BME280;57143;55.940;37.496;2023-05-21T05:26:13;96579.66;;;12.29;100.00
69848;BME280;57143;55.940;37.496;2023-05-21T05:28:41;96643.34;;;12.23;100.00
69848;BME280;57143;55.940;37.496;2023-05-21T05:31:08;96713.41;;;12.07;100.00
69848;BME280;57143;55.940;37.496;2023-05-21T05:33:35;96754.34;;;12.11;100.00
69848;BME280;57143;55.940;37.496;2023-05-21T05:36:02;96836.22;;;11.67;100.00
69848;BME280;57143;55.940;37.496;2023-05-21T05:38:30;96881.50;;;11.67;100.00
69848;BME280;57143;55.940;37.496;2023-05-21T05:40:58;96903.75;;;11.69;100.00
69848;BME280;57143;55.940;37.496;2023-05-21T05:43:25;96935.78;;;11.67;100.00
69848;BME280;57143;55.940;37.496;2023-05-21T05:45:52;96962.28;;;11.75;100.00
69848;BME280;57143;55.940;37.496;2023-05-21T05:48:20;96988.31;;;11.76;100.00
69848;BME280;57143;55.940;37.496;2023-05-21T05:50:47;96986.34;;;11.81;100.00
69848;BME280;57143;55.940;37.496;2023-05-21T05:53:14;97027.72;;;11.92;100.00
69848;BME280;57143;55.940;37.496;2023-05-21T05:55:41;97051.94;;;11.88;100.00
69848;BME280;57143;55.940;37.496;2023-05-21T05:58:10;97090.63;;;11.99;100.00
69848;BME280;57143;55.940;37.496;2023-05-21T06:00:37;97133.56;;;12.15;100.00
69848;BME280;57143;55.940;37.496;2023-05-21T06:03:04;97198.78;;;11.87;100.00
69848;BME280;57143;55.940;37.496;2023-05-21T06:05:31;97251.44;;;11.86;100.00
69848;BME280;57143;55.940;37.496;2023-05-21T06:07:58;97273.31;;;11.99;100.00
69848;BME280;57143;55.940;37.496;2023-05-21T06:10:26;97323.34;;;11.88;100.00
69848;BME280;57143;55.940;37.496;2023-05-21T06:12:53;97344.81;;;11.85;100.00
69848;BME280;57143;55.940;37.496;2023-05-21T06:15:21;97390.81;;;11.66;100.00
69848;BME280;57143;55.940;37.496;2023-05-21T06:17:48;97414.38;;;11.71;100.00
69848;BME280;57143;55.940;37.496;2023-05-21T06:20:16;97439.91;;;11.70;100.00
69848;BME280;57143;55.940;37.496;2023-05-21T06:22:43;97454.00;;;11.67;100.00
69848;BME280;57143;55.940;37.496;2023-05-21T06:25:10;97497.44;;;11.67;100.00
69848;BME280;57143;55.940;37.496;2023-05-21T06:27:37;97520.50;;;11.69;100.00
69848;BME280;57143;55.940;37.496;2023-05-21T06:30:06;97530.53;;;11.69;100.00
69848;BME280;57143;55.940;37.496;2023-05-21T06:32:35;97539.44;;;11.79;100.00
69848;BME280;57143;55.940;37.496;2023-05-21T06:35:02;97535.09;;;11.83;100.00
69848;BME280;57143;55.940;37.496;2023-05-21T06:37:31;97560.56;;;11.92;100.00
69848;BME280;57143;55.940;37.496;2023-05-21T06:39:58;97567.81;;;12.12;100.00
69848;BME280;57143;55.940;37.496;2023-05-21T06:42:25;97564.69;;;12.38;100.00
69848;BME280;57143;55.940;37.496;2023-05-21T06:44:52;97569.19;;;12.58;100.00
69848;BME280;57143;55.940;37.496;2023-05-21T06:47:20;97598.97;;;12.73;100.00
69848;BME280;57143;55.940;37.496;2023-05-21T06:49:48;97584.00;;;13.43;100.00
69848;BME280;57143;55.940;37.496;2023-05-21T06:52:15;97637.56;;;13.47;100.00
69848;BME280;57143;55.940;37.496;2023-05-21T06:54:42;97733.88;;;13.13;100.00
69848;BME280;57143;55.940;37.496;2023-05-21T06:57:09;97778.38;;;13.32;100.00
69848;BME280;57143;55.940;37.496;2023-05-21T06:59:37;97820.59;;;13.24;100.00
69848;BME280;57143;55.940;37.496;2023-05-21T07:02:04;97876.84;;;13.39;100.00
69848;BME280;57143;55.940;37.496;2023-05-21T07:04:32;97912.88;;;13.69;100.00
69848;BME280;57143;55.940;37.496;2023-05-21T07:07:02;97969.22;;;13.69;100.00
69848;BME280;57143;55.940;37.496;2023-05-21T07:09:29;98066.00;;;13.21;100.00
69848;BME280;57143;55.940;37.496;2023-05-21T07:11:56;98094.81;;;13.47;100.00
69848;BME280;57143;55.940;37.496;2023-05-21T07:14:24;98138.06;;;13.59;100.00
69848;BME280;57143;55.940;37.496;2023-05-21T07:16:52;98176.47;;;13.57;100.00
69848;BME280;57143;55.940;37.496;2023-05-21T07:19:19;98196.06;;;13.54;100.00
69848;BME280;57143;55.940;37.496;2023-05-21T07:21:46;98241.50;;;13.74;100.00
69848;BME280;57143;55.940;37.496;2023-05-21T07:24:15;98274.72;;;13.81;100.00
69848;BME280;57143;55.940;37.496;2023-05-21T07:26:42;98291.34;;;14.10;100.00
69848;BME280;57143;55.940;37.496;2023-05-21T07:29:09;98327.03;;;14.38;100.00
69848;BME280;57143;55.940;37.496;2023-05-21T07:31:36;98335.91;;;14.89;100.00
69848;BME280;57143;55.940;37.496;2023-05-21T07:34:03;98401.94;;;14.76;100.00
69848;BME280;57143;55.940;37.496;2023-05-21T07:36:31;98444.41;;;15.17;100.00
69848;BME280;57143;55.940;37.496;2023-05-21T07:38:58;98478.34;;;15.75;100.00
69848;BME280;57143;55.940;37.496;2023-05-21T07:41:27;98504.44;;;16.55;100.00
69848;BME280;57143;55.940;37.496;2023-05-21T07:43:55;98613.88;;;15.66;100.00
69848;BME280;57143;55.940;37.496;2023-05-21T07:46:22;98652.13;;;15.05;100.00
69848;BME280;57143;55.940;37.496;2023-05-21T07:48:49;98641.47;;;15.09;100.00
69848;BME280;57143;55.940;37.496;2023-05-21T07:51:16;98629.47;;;15.00;100.00
69848;BME280;57143;55.940;37.496;2023-05-21T07:53:43;98654.50;;;14.00;100.00
69848;BME280;57143;55.940;37.496;2023-05-21T07:56:11;98642.13;;;13.82;100.00
69848;BME280;57143;55.940;37.496;2023-05-21T07:58:39;98599.25;;;14.15;100.00
69848;BME280;57143;55.940;37.496;2023-05-21T08:01:08;98614.13;;;13.87;100.00
69848;BME280;57143;55.940;37.496;2023-05-21T08:03:35;98593.84;;;14.25;100.00
69848;BME280;57143;55.940;37.496;2023-05-21T08:06:03;98609.13;;;14.31;100.00
69848;BME280;57143;55.940;37.496;2023-05-21T08:08:30;98627.50;;;14.75;100.00
69848;BME280;57143;55.940;37.496;2023-05-21T08:10:57;98631.06;;;15.76;100.00
69848;BME280;57143;55.940;37.496;2023-05-21T08:13:24;98667.38;;;15.97;100.00
69848;BME280;57143;55.940;37.496;2023-05-21T08:15:53;98709.44;;;16.11;100.00
69848;BME280;57143;55.940;37.496;2023-05-21T08:18:20;98742.72;;;16.38;100.00
69848;BME280;57143;55.940;37.496;2023-05-21T08:20:48;98776.38;;;16.34;100.00
69848;BME280;57143;55.940;37.496;2023-05-21T08:23:16;98803.47;;;16.00;100.00
69848;BME280;57143;55.940;37.496;2023-05-21T08:25:43;98794.47;;;16.09;100.00
69848;BME280;57143;55.940;37.496;2023-05-21T08:28:10;98800.75;;;15.95;100.00
69848;BME280;57143;55.940;37.496;2023-05-21T08:30:37;98830.81;;;16.05;100.00
69848;BME280;57143;55.940;37.496;2023-05-21T08:33:06;98819.31;;;15.98;100.00
69848;BME280;57143;55.940;37.496;2023-05-21T08:35:33;98834.09;;;15.87;100.00
69848;BME280;57143;55.940;37.496;2023-05-21T08:38:00;98845.03;;;15.77;100.00
69848;BME280;57143;55.940;37.496;2023-05-21T08:40:28;98873.94;;;15.58;100.00
69848;BME280;57143;55.940;37.496;2023-05-21T08:42:56;98872.84;;;15.64;100.00
69848;BME280;57143;55.940;37.496;2023-05-21T08:45:23;98895.53;;;15.59;100.00
69848;BME280;57143;55.940;37.496;2023-05-21T08:47:54;98884.03;;;15.52;100.00
69848;BME280;57143;55.940;37.496;2023-05-21T08:50:25;98882.56;;;15.30;100.00
69848;BME280;57143;55.940;37.496;2023-05-21T08:52:53;98879.19;;;15.02;100.00
69848;BME280;57143;55.940;37.496;2023-05-21T08:55:21;98895.50;;;14.92;100.00
69848;BME280;57143;55.940;37.496;2023-05-21T08:57:48;98895.72;;;14.86;100.00
69848;BME280;57143;55.940;37.496;2023-05-21T09:00:17;98897.94;;;14.89;100.00
69848;BME280;57143;55.940;37.496;2023-05-21T09:02:45;98900.81;;;14.67;100.00
69848;BME280;57143;55.940;37.496;2023-05-21T09:05:13;98885.91;;;14.85;100.00
69848;BME280;57143;55.940;37.496;2023-05-21T09:07:47;98872.06;;;15.01;100.00
69848;BME280;57143;55.940;37.496;2023-05-21T09:10:17;98869.13;;;15.08;100.00
69848;BME280;57143;55.940;37.496;2023-05-21T09:12:47;98875.75;;;15.32;100.00
69848;BME280;57143;55.940;37.496;2023-05-21T09:15:14;98859.75;;;15.71;100.00
69848;BME280;57143;55.940;37.496;2023-05-21T09:17:45;98869.91;;;15.90;100.00
69848;BME280;57143;55.940;37.496;2023-05-21T09:20:13;98904.09;;;16.13;100.00
69848;BME280;57143;55.940;37.496;2023-05-21T09:22:41;98922.16;;;16.34;100.00
69848;BME280;57143;55.940;37.496;2023-05-21T09:25:11;98943.47;;;16.42;100.00
69848;BME280;57143;55.940;37.496;2023-05-21T09:27:39;98926.53;;;16.60;100.00
69848;BME280;57143;55.940;37.496;2023-05-21T09:30:09;98954.38;;;16.02;100.00
69848;BME280;57143;55.940;37.496;2023-05-21T09:32:37;98953.47;;;15.71;100.00
69848;BME280;57143;55.940;37.496;2023-05-21T09:35:08;98921.88;;;16.36;100.00
69848;BME280;57143;55.940;37.496;2023-05-21T09:37:36;98976.78;;;16.04;100.00
69848;BME280;57143;55.940;37.496;2023-05-21T09:40:13;98972.19;;;16.25;100.00
69848;BME280;57143;55.940;37.496;2023-05-21T09:42:41;98971.09;;;16.36;100.00
69848;BME280;57143;55.940;37.496;2023-05-21T09:45:09;98990.50;;;16.24;100.00
69848;BME280;57143;55.940;37.496;2023-05-21T09:47:40;98974.06;;;16.19;100.00
69848;BME280;57143;55.940;37.496;2023-05-21T09:50:09;98961.28;;;16.70;100.00
69848;BME280;57143;55.940;37.496;2023-05-21T09:52:37;98954.44;;;16.77;100.00
69848;BME280;57143;55.940;37.496;2023-05-21T09:55:05;98993.78;;;17.16;100.00
69848;BME280;57143;55.940;37.496;2023-05-21T09:57:39;99001.22;;;17.01;100.00
69848;BME280;57143;55.940;37.496;2023-05-21T10:00:08;99028.06;;;16.84;100.00
69848;BME280;57143;55.940;37.496;2023-05-21T10:02:39;99025.31;;;16.84;100.00
69848;BME280;57143;55.940;37.496;2023-05-21T10:05:09;99059.25;;;16.68;100.00
69848;BME280;57143;55.940;37.496;2023-05-21T10:07:38;99015.66;;;16.41;100.00
69848;BME280;57143;55.940;37.496;2023-05-21T10:10:09;99041.94;;;16.37;100.00
69848;BME280;57143;55.940;37.496;2023-05-21T10:12:40;99088.78;;;16.71;100.00
69848;BME280;57143;55.940;37.496;2023-05-21T10:15:13;99091.56;;;16.86;100.00
69848;BME280;57143;55.940;37.496;2023-05-21T10:17:41;99104.97;;;17.12;100.00
69848;BME280;57143;55.940;37.496;2023-05-21T10:20:10;99103.31;;;17.47;100.00
69848;BME280;57143;55.940;37.496;2023-05-21T10:22:38;99101.28;;;17.97;100.00
69848;BME280;57143;55.940;37.496;2023-05-21T10:25:06;99119.91;;;18.00;100.00
69848;BME280;57143;55.940;37.496;2023-05-21T10:27:34;99236.66;;;16.96;100.00
69848;BME280;57143;55.940;37.496;2023-05-21T10:30:04;99150.97;;;16.90;100.00
69848;BME280;57143;55.940;37.496;2023-05-21T10:32:33;99147.66;;;16.78;100.00
69848;BME280;57143;55.940;37.496;2023-05-21T10:35:01;99164.81;;;16.54;100.00
69848;BME280;57143;55.940;37.496;2023-05-21T10:37:31;99164.47;;;16.40;100.00
69848;BME280;57143;55.940;37.496;2023-05-21T10:39:59;99151.63;;;16.36;100.00
69848;BME280;57143;55.940;37.496;2023-05-21T10:45:31;99083.47;;;16.24;100.00
69848;BME280;57143;55.940;37.496;2023-05-21T10:48:13;99102.66;;;16.39;100.00
69848;BME280;57143;55.940;37.496;2023-05-21T10:51:11;99075.09;;;16.66;100.00
69848;BME280;57143;55.940;37.496;2023-05-21T10:54:07;99028.03;;;16.59;100.00
69848;BME280;57143;55.940;37.496;2023-05-21T10:56:40;99035.44;;;16.83;100.00
69848;BME280;57143;55.940;37.496;2023-05-21T10:59:15;99064.97;;;17.26;100.00
69848;BME280;57143;55.940;37.496;2023-05-21T11:01:49;99071.56;;;17.05;100.00
69848;BME280;57143;55.940;37.496;2023-05-21T11:04:21;99057.53;;;17.72;100.00
69848;BME280;57143;55.940;37.496;2023-05-21T11:06:49;99065.31;;;18.04;100.00
69848;BME280;57143;55.940;37.496;2023-05-21T11:09:16;99135.00;;;18.03;100.00
69848;BME280;57143;55.940;37.496;2023-05-21T11:11:43;99215.91;;;17.90;100.00
69848;BME280;57143;55.940;37.496;2023-05-21T11:14:32;99228.53;;;17.71;100.00
69848;BME280;57143;55.940;37.496;2023-05-21T11:17:03;99236.72;;;17.36;100.00
69848;BME280;57143;55.940;37.496;2023-05-21T11:19:37;99230.75;;;17.49;100.00
69848;BME280;57143;55.940;37.496;2023-05-21T11:22:09;99220.34;;;17.66;100.00
69848;BME280;57143;55.940;37.496;2023-05-21T11:24:46;99237.88;;;17.50;100.00
69848;BME280;57143;55.940;37.496;2023-05-21T11:27:29;99221.38;;;17.30;100.00
69848;BME280;57143;55.940;37.496;2023-05-21T11:29:57;99217.25;;;17.22;100.00
69848;BME280;57143;55.940;37.496;2023-05-21T11:32:25;99193.84;;;16.55;100.00
69848;BME280;57143;55.940;37.496;2023-05-21T11:34:52;99192.19;;;16.54;100.00
69848;BME280;57143;55.940;37.496;2023-05-21T11:37:27;99165.00;;;16.27;100.00
69848;BME280;57143;55.940;37.496;2023-05-21T11:39:57;99149.63;;;16.21;100.00
69848;BME280;57143;55.940;37.496;2023-05-21T11:42:31;99157.06;;;16.31;100.00
69848;BME280;57143;55.940;37.496;2023-05-21T11:45:00;99146.19;;;16.46;100.00
69848;BME280;57143;55.940;37.496;2023-05-21T11:47:34;99163.50;;;16.66;100.00
69848;BME280;57143;55.940;37.496;2023-05-21T11:50:03;99172.88;;;16.90;100.00
69848;BME280;57143;55.940;37.496;2023-05-21T11:52:32;99187.41;;;17.16;100.00
69848;BME280;57143;55.940;37.496;2023-05-21T11:54:59;99204.13;;;17.14;100.00
69848;BME280;57143;55.940;37.496;2023-05-21T11:57:27;99208.16;;;16.87;100.00
69848;BME280;57143;55.940;37.496;2023-05-21T11:59:57;99218.22;;;16.66;100.00
69848;BME280;57143;55.940;37.496;2023-05-21T12:02:25;99218.19;;;16.51;100.00
69848;BME280;57143;55.940;37.496;2023-05-21T12:04:54;99225.19;;;16.32;100.00
69848;BME280;57143;55.940;37.496;2023-05-21T12:07:26;99236.69;;;16.39;100.00
69848;BME280;57143;55.940;37.496;2023-05-21T12:09:54;99276.28;;;16.27;100.00
69848;BME280;57143;55.940;37.496;2023-05-21T12:12:23;99317.25;;;16.16;100.00
69848;BME280;57143;55.940;37.496;2023-05-21T12:14:52;99317.03;;;16.28;100.00
69848;BME280;57143;55.940;37.496;2023-05-21T12:17:20;99309.72;;;16.39;100.00
69848;BME280;57143;55.940;37.496;2023-05-21T12:19:50;99234.88;;;16.03;100.00
69848;BME280;57143;55.940;37.496;2023-05-21T12:22:19;99294.34;;;16.33;100.00
69848;BME280;57143;55.940;37.496;2023-05-21T12:24:46;99274.06;;;16.18;100.00
69848;BME280;57143;55.940;37.496;2023-05-21T12:27:14;99289.94;;;16.22;100.00
69848;BME280;57143;55.940;37.496;2023-05-21T12:29:43;99237.00;;;15.96;100.00
69848;BME280;57143;55.940;37.496;2023-05-21T12:32:11;99295.69;;;16.25;100.00
69848;BME280;57143;55.940;37.496;2023-05-21T12:34:42;99286.88;;;16.13;100.00
69848;BME280;57143;55.940;37.496;2023-05-21T12:37:14;99251.63;;;16.16;100.00
69848;BME280;57143;55.940;37.496;2023-05-21T12:39:44;99279.59;;;16.29;100.00
69848;BME280;57143;55.940;37.496;2023-05-21T12:42:12;99254.91;;;16.18;100.00
69848;BME280;57143;55.940;37.496;2023-05-21T12:44:43;99229.94;;;16.05;100.00
69848;BME280;57143;55.940;37.496;2023-05-21T12:47:11;99253.88;;;16.30;100.00
69848;BME280;57143;55.940;37.496;2023-05-21T12:49:39;99250.59;;;16.33;100.00